Whitman, North Dakota
Current Conditions -  °F | °C
As of 5:22 PM on Monday 22 Dec 2014 (Local Time) from KRDR Reporting Station
Haze Haze  
Wind Chill: 30°   Ceiling: 200
Heat Index: 36°   Visibility: 6mi
Dew Point: 36°   Wind: 7mph
Humidity: 100%   Direction: 40°NE
Pressure: 29.63"   Gusts: NA
Location:  48.0481°N, 98.1268°W
Report Text: KRDR 222322Z AUTO 04006KT 6SM R35/5000FT UP BR OVC002 02/02 A2963 RMK AO2 UPB2306E2316 $
Loading
Personal Weather Stations






























Interactive Weather Map New forecast layout! Learn more

10-Day Weather Forecast

Advertisements
Track Severe Weather on mobile